createdAt,value
2023-04-22T00:00:44.063Z,8.93
2023-04-22T00:01:46.316Z,11.40
2023-04-22T00:02:48.838Z,9.97
2023-04-22T00:03:52.336Z,10.57
2023-04-22T00:04:55.297Z,11.73
2023-04-22T00:05:57.837Z,10.07
2023-04-22T00:07:00.624Z,10.80
2023-04-22T00:08:03.479Z,11.17
2023-04-22T00:09:06.189Z,11.93
2023-04-22T00:10:09.986Z,10.23
2023-04-22T00:11:13.764Z,14.33
2023-04-22T00:12:16.048Z,11.17
2023-04-22T00:13:18.476Z,12.40
2023-04-22T00:14:20.694Z,13.53
2023-04-22T00:15:22.980Z,10.97
2023-04-22T00:16:26.493Z,11.83
2023-04-22T00:17:28.803Z,12.30
2023-04-22T00:18:31.148Z,12.23
2023-04-22T00:19:33.727Z,13.27
2023-04-22T00:20:36.611Z,10.13
2023-04-22T00:21:39.043Z,10.87
2023-04-22T00:22:41.429Z,11.80
2023-04-22T00:23:45.497Z,11.33
2023-04-22T00:24:48.089Z,13.50
2023-04-22T00:25:51.265Z,10.67
2023-04-22T00:26:53.526Z,11.10
2023-04-22T00:27:55.752Z,11.00
2023-04-22T00:28:58.098Z,10.77
2023-04-22T00:30:00.484Z,10.30
2023-04-22T00:31:04.941Z,11.93
2023-04-22T00:32:07.195Z,13.00
2023-04-22T00:33:09.664Z,10.93
2023-04-22T00:34:12.153Z,10.30
2023-04-22T00:35:14.448Z,10.57
2023-04-22T00:36:16.780Z,10.37
2023-04-22T00:37:19.006Z,10.73
2023-04-22T00:38:22.344Z,12.03
2023-04-22T00:39:24.679Z,10.70
2023-04-22T00:40:27.298Z,11.67
2023-04-22T00:41:31.297Z,11.50
2023-04-22T00:42:33.659Z,12.97
2023-04-22T00:43:36.226Z,12.67
2023-04-22T00:44:39.404Z,10.40
2023-04-22T00:45:43.073Z,9.90
2023-04-22T00:46:46.320Z,11.47
2023-04-22T00:47:49.267Z,12.50
2023-04-22T00:48:52.651Z,11.80
2023-04-22T00:49:55.328Z,10.30
2023-04-22T00:50:57.620Z,11.50
2023-04-22T00:51:59.937Z,10.57
2023-04-22T00:53:02.167Z,13.17
2023-04-22T00:54:06.189Z,10.40
2023-04-22T00:55:08.762Z,10.83
2023-04-22T00:56:12.199Z,10.67
2023-04-22T00:57:14.927Z,10.77
2023-04-22T00:58:19.160Z,11.17
2023-04-22T00:59:23.587Z,11.10
2023-04-22T01:00:27.549Z,13.13
2023-04-22T01:01:30.809Z,9.87
2023-04-22T01:02:33.646Z,11.10
2023-04-22T01:03:39.275Z,10.80
2023-04-22T01:04:41.956Z,11.57
2023-04-22T01:05:45.283Z,10.97
2023-04-22T01:06:47.860Z,10.63
2023-04-22T01:07:51.338Z,10.73
2023-04-22T01:08:54.247Z,11.73
2023-04-22T01:09:57.611Z,10.50
2023-04-22T01:11:01.154Z,10.63
2023-04-22T01:12:03.550Z,11.47
2023-04-22T01:13:06.075Z,10.30
2023-04-22T01:14:08.525Z,10.30
2023-04-22T01:15:11.658Z,11.60
2023-04-22T01:16:14.035Z,10.93
2023-04-22T01:17:16.876Z,10.60
2023-04-22T01:18:19.552Z,11.27
2023-04-22T01:19:22.199Z,11.10
2023-04-22T01:20:25.341Z,10.27
2023-04-22T01:21:28.230Z,10.27
2023-04-22T01:22:36.487Z,11.47
2023-04-22T01:23:38.847Z,15.07
2023-04-22T01:24:42.292Z,11.03
2023-04-22T01:25:44.706Z,12.27
2023-04-22T01:26:48.123Z,11.97
2023-04-22T01:27:50.758Z,9.63
2023-04-22T01:28:53.140Z,10.97
2023-04-22T01:29:55.804Z,11.07
2023-04-22T01:30:58.272Z,10.23
2023-04-22T01:32:00.878Z,10.23
2023-04-22T01:33:05.513Z,12.03
2023-04-22T01:34:07.927Z,9.77
2023-04-22T01:35:10.754Z,12.43
2023-04-22T01:36:13.342Z,10.07
2023-04-22T01:37:15.678Z,9.17
2023-04-22T01:38:18.476Z,11.30
2023-04-22T01:39:20.797Z,9.90
2023-04-22T01:40:23.524Z,10.03
2023-04-22T01:41:25.973Z,10.53
2023-04-22T01:42:28.488Z,9.87
2023-04-22T01:43:31.103Z,10.77
2023-04-22T01:44:33.361Z,10.07
2023-04-22T01:45:37.721Z,11.13
2023-04-22T01:46:40.421Z,10.13
2023-04-22T01:47:42.972Z,16.30
2023-04-22T01:48:50.562Z,11.87
2023-04-22T01:49:53.120Z,13.97
2023-04-22T01:50:55.629Z,10.60
2023-04-22T01:52:01.050Z,10.20
2023-04-22T01:53:03.480Z,10.37
2023-04-22T01:54:06.160Z,12.13
2023-04-22T01:55:09.221Z,9.83
2023-04-22T01:56:11.607Z,10.00
2023-04-22T01:57:14.683Z,11.03
2023-04-22T01:58:17.183Z,11.63
2023-04-22T01:59:21.258Z,10.90
2023-04-22T02:00:25.996Z,9.83
2023-04-22T02:01:28.345Z,9.97
2023-04-22T02:02:30.749Z,10.93
2023-04-22T02:03:33.191Z,9.70
2023-04-22T02:04:35.991Z,13.97
2023-04-22T02:05:38.453Z,9.87
2023-04-22T02:06:40.901Z,9.60
2023-04-22T02:07:43.253Z,10.80
2023-04-22T02:08:45.581Z,11.40
2023-04-22T02:09:50.773Z,10.00
2023-04-22T02:10:53.214Z,11.77
2023-04-22T02:11:55.498Z,9.63
2023-04-22T02:12:58.237Z,10.00
2023-04-22T02:14:00.558Z,10.07
2023-04-22T02:15:03.415Z,10.57
2023-04-22T02:16:06.412Z,10.47
2023-04-22T02:17:08.740Z,11.20
2023-04-22T02:18:11.446Z,11.77
2023-04-22T02:19:13.795Z,10.70
2023-04-22T02:20:16.219Z,10.60
2023-04-22T02:21:20.238Z,12.20
2023-04-22T02:22:23.871Z,11.67
2023-04-22T02:23:27.786Z,10.20
2023-04-22T02:24:30.175Z,12.20
2023-04-22T02:25:33.951Z,9.70
2023-04-22T02:26:36.391Z,9.67
2023-04-22T02:27:39.546Z,10.23
2023-04-22T02:28:42.912Z,9.77
2023-04-22T02:29:46.106Z,10.47
2023-04-22T02:30:48.983Z,11.43
2023-04-22T02:31:51.340Z,9.33
2023-04-22T02:32:53.925Z,9.57
2023-04-22T02:33:56.280Z,10.13
2023-04-22T02:34:58.532Z,9.73
2023-04-22T02:36:00.804Z,10.37
2023-04-22T02:37:03.493Z,11.20
2023-04-22T02:38:06.076Z,8.93
2023-04-22T02:39:08.398Z,9.33
2023-04-22T02:40:11.641Z,9.60
2023-04-22T02:41:13.852Z,9.73
2023-04-22T02:42:17.501Z,9.77
2023-04-22T02:43:19.754Z,9.80
2023-04-22T02:44:23.484Z,8.90
2023-04-22T02:45:25.812Z,9.30
2023-04-22T02:46:28.207Z,10.77
2023-04-22T02:47:31.416Z,10.33
2023-04-22T02:48:33.696Z,10.03
2023-04-22T02:49:36.069Z,10.40
2023-04-22T02:50:38.736Z,9.80
2023-04-22T02:51:41.093Z,9.57
2023-04-22T02:52:43.419Z,11.40
2023-04-22T02:53:45.649Z,11.47
2023-04-22T02:54:50.191Z,9.13
2023-04-22T02:55:52.612Z,9.43
2023-04-22T02:56:54.943Z,9.77
2023-04-22T02:57:57.218Z,10.50
2023-04-22T02:58:59.594Z,10.20
2023-04-22T03:00:02.108Z,9.73
2023-04-22T03:01:04.731Z,10.50
2023-04-22T03:02:07.208Z,10.00
2023-04-22T03:03:20.217Z,10.33
2023-04-22T03:04:22.770Z,9.67
2023-04-22T03:05:25.465Z,11.20
2023-04-22T03:06:27.974Z,9.93
2023-04-22T03:07:30.414Z,10.13
2023-04-22T03:08:33.392Z,9.60
2023-04-22T03:09:35.725Z,9.70
2023-04-22T03:10:37.978Z,13.07
2023-04-22T03:11:40.261Z,9.93
2023-04-22T03:12:42.571Z,9.37
2023-04-22T03:13:44.887Z,12.00
2023-04-22T03:14:47.419Z,10.27
2023-04-22T03:15:50.277Z,10.77
2023-04-22T03:16:52.997Z,9.40
2023-04-22T03:17:55.614Z,10.23
2023-04-22T03:18:59.166Z,11.07
2023-04-22T03:20:01.663Z,9.50
2023-04-22T03:21:04.960Z,9.00
2023-04-22T03:22:07.264Z,9.17
2023-04-22T03:23:09.631Z,9.93
2023-04-22T03:24:12.907Z,9.27
2023-04-22T03:25:20.276Z,8.63
2023-04-22T03:26:27.684Z,9.67
2023-04-22T03:27:30.245Z,9.60
2023-04-22T03:28:32.612Z,9.53
2023-04-22T03:29:35.017Z,10.17
2023-04-22T03:30:37.371Z,9.13
2023-04-22T03:31:39.860Z,10.00
2023-04-22T03:32:42.240Z,9.30
2023-04-22T03:33:57.428Z,9.57
2023-04-22T03:35:03.716Z,9.20
2023-04-22T03:36:06.289Z,8.83
2023-04-22T03:37:09.376Z,10.40
2023-04-22T03:38:11.946Z,10.67
2023-04-22T03:39:14.234Z,8.53
2023-04-22T03:40:30.172Z,10.47
2023-04-22T03:41:33.574Z,10.90
2023-04-22T03:42:36.332Z,9.30
2023-04-22T03:43:38.759Z,11.10
2023-04-22T03:44:43.805Z,9.53
2023-04-22T03:45:47.389Z,9.60
2023-04-22T03:46:54.565Z,9.10
2023-04-22T03:48:00.459Z,9.07
2023-04-22T03:49:12.088Z,9.53
2023-04-22T03:50:14.421Z,10.30
2023-04-22T03:51:16.822Z,10.70
2023-04-22T03:52:19.117Z,11.47
2023-04-22T03:53:29.687Z,8.87
2023-04-22T03:54:32.103Z,10.93
2023-04-22T03:55:35.084Z,9.77
2023-04-22T03:56:37.533Z,10.43
2023-04-22T03:57:41.163Z,8.93
2023-04-22T03:58:44.731Z,10.17
2023-04-22T03:59:46.988Z,10.07
2023-04-22T04:00:49.357Z,11.53
2023-04-22T04:01:54.353Z,9.77
2023-04-22T04:03:00.875Z,9.47
2023-04-22T04:04:03.797Z,10.60
2023-04-22T04:05:17.933Z,9.70
2023-04-22T04:06:20.363Z,11.40
2023-04-22T04:07:22.774Z,9.20
2023-04-22T04:08:26.939Z,10.10
2023-04-22T04:09:29.292Z,10.03
2023-04-22T04:10:33.563Z,9.17
2023-04-22T04:11:36.689Z,10.13
2023-04-22T04:12:39.705Z,10.87
2023-04-22T04:13:42.153Z,11.10
2023-04-22T04:14:53.129Z,11.20
2023-04-22T04:15:58.784Z,9.43
2023-04-22T04:17:04.256Z,9.77
2023-04-22T04:18:09.941Z,11.77
2023-04-22T04:19:12.670Z,9.57
2023-04-22T04:20:16.327Z,10.23
2023-04-22T04:21:18.704Z,10.53
2023-04-22T04:22:25.041Z,11.57
2023-04-22T04:23:32.683Z,9.30
2023-04-22T04:24:36.839Z,11.57
2023-04-22T04:25:46.416Z,9.43
2023-04-22T04:26:49.680Z,10.03
2023-04-22T04:27:59.187Z,11.17
2023-04-22T04:29:02.003Z,10.60
2023-04-22T04:30:05.178Z,10.57
2023-04-22T04:31:19.961Z,9.17
2023-04-22T04:32:24.126Z,9.60
2023-04-22T04:33:27.310Z,9.00
2023-04-22T04:34:29.636Z,11.40
2023-04-22T04:35:37.710Z,10.87
2023-04-22T04:36:43.972Z,10.43
2023-04-22T04:37:54.035Z,9.70
2023-04-22T04:38:56.978Z,9.53
2023-04-22T04:40:00.520Z,10.20
2023-04-22T04:41:12.759Z,9.60
2023-04-22T04:42:15.476Z,9.00
2023-04-22T04:43:28.177Z,10.33
2023-04-22T04:44:37.946Z,11.27
2023-04-22T04:45:48.439Z,9.97
2023-04-22T04:46:55.042Z,9.97
2023-04-22T04:47:58.637Z,10.37
2023-04-22T04:49:07.489Z,10.60
2023-04-22T04:50:16.676Z,9.50
2023-04-22T04:51:20.563Z,10.27
2023-04-22T04:52:32.475Z,9.83
2023-04-22T04:53:35.309Z,9.23
2023-04-22T04:54:38.162Z,8.80
2023-04-22T04:55:41.047Z,9.93
2023-04-22T04:56:51.635Z,10.10
2023-04-22T04:57:54.298Z,9.33
2023-04-22T04:58:56.698Z,10.23
2023-04-22T05:00:03.162Z,9.47
2023-04-22T05:01:06.443Z,9.57
2023-04-22T05:02:11.536Z,9.87
2023-04-22T05:03:14.147Z,10.13
2023-04-22T05:04:17.019Z,9.50
2023-04-22T05:05:19.884Z,10.30
2023-04-22T05:06:22.555Z,10.40
2023-04-22T05:07:30.393Z,9.50
2023-04-22T05:08:33.907Z,9.30
2023-04-22T05:09:42.007Z,9.60
2023-04-22T05:10:45.332Z,8.83
2023-04-22T05:11:48.202Z,9.73
2023-04-22T05:12:54.827Z,9.00
2023-04-22T05:14:00.522Z,10.13
2023-04-22T05:15:08.177Z,9.97
2023-04-22T05:16:10.834Z,9.50
2023-04-22T05:17:14.621Z,9.23
2023-04-22T05:18:17.995Z,10.00
2023-04-22T05:19:20.409Z,9.70
2023-04-22T05:20:23.864Z,9.50
2023-04-22T05:21:26.141Z,11.13
2023-04-22T05:22:29.250Z,11.80
2023-04-22T05:23:31.810Z,11.23
2023-04-22T05:24:36.851Z,9.23
2023-04-22T05:25:39.789Z,9.40
2023-04-22T05:26:46.382Z,9.47
2023-04-22T05:27:52.448Z,10.20
2023-04-22T05:28:55.431Z,11.53
2023-04-22T05:29:58.385Z,9.17
2023-04-22T05:31:05.003Z,10.00
2023-04-22T05:32:09.101Z,10.07
2023-04-22T05:33:11.511Z,10.70
2023-04-22T05:34:14.505Z,8.70
2023-04-22T05:35:16.935Z,10.90
2023-04-22T05:36:19.285Z,9.85
2023-04-22T05:37:24.111Z,10.87
2023-04-22T05:38:26.855Z,9.60
2023-04-22T05:39:31.363Z,9.07
2023-04-22T05:40:36.014Z,9.10
2023-04-22T05:41:39.891Z,10.13
2023-04-22T05:42:45.177Z,8.80
2023-04-22T05:43:47.621Z,9.70
2023-04-22T05:44:53.001Z,9.98
2023-04-22T05:45:55.648Z,9.55
2023-04-22T05:46:58.007Z,11.25
2023-04-22T05:48:02.516Z,8.70
2023-04-22T05:49:08.883Z,9.70
2023-04-22T05:50:31.055Z,10.02
2023-04-22T05:51:40.150Z,10.23
2023-04-22T05:52:44.080Z,9.13
2023-04-22T05:53:50.181Z,8.82
2023-04-22T05:54:53.905Z,8.88
2023-04-22T05:55:56.725Z,8.68
2023-04-22T05:56:59.871Z,9.48
2023-04-22T05:58:02.290Z,10.40
2023-04-22T05:59:25.499Z,9.77
2023-04-22T06:00:28.172Z,9.15
2023-04-22T06:01:46.133Z,11.13
2023-04-22T06:02:52.237Z,11.93
2023-04-22T06:03:55.118Z,9.13
2023-04-22T06:04:58.938Z,9.70
2023-04-22T06:06:02.675Z,10.20
2023-04-22T06:07:05.098Z,10.20
2023-04-22T06:08:07.461Z,12.65
2023-04-22T06:09:10.965Z,9.88
2023-04-22T06:10:15.960Z,9.02
2023-04-22T06:11:18.338Z,9.90
2023-04-22T06:12:20.654Z,15.75
2023-04-22T06:13:24.022Z,12.70
2023-04-22T06:14:26.857Z,17.52
2023-04-22T06:15:30.137Z,9.93
2023-04-22T06:16:34.306Z,10.02
2023-04-22T06:17:36.824Z,11.05
2023-04-22T06:18:39.984Z,9.85
2023-04-22T06:19:46.366Z,9.40
2023-04-22T06:20:48.975Z,10.27
2023-04-22T06:21:51.640Z,11.60
2023-04-22T06:22:53.922Z,11.23
2023-04-22T06:23:56.396Z,10.32
2023-04-22T06:24:58.735Z,10.23
2023-04-22T06:26:02.117Z,9.07
2023-04-22T06:27:05.373Z,10.13
2023-04-22T06:28:07.708Z,11.23
2023-04-22T06:29:11.127Z,9.68
2023-04-22T06:30:15.062Z,9.10
2023-04-22T06:31:18.886Z,9.60
2023-04-22T06:32:22.927Z,9.50
2023-04-22T06:33:25.277Z,9.27
2023-04-22T06:34:27.546Z,9.23
2023-04-22T06:35:29.841Z,10.00
2023-04-22T06:36:33.961Z,10.02
2023-04-22T06:37:37.854Z,10.30
2023-04-22T06:38:42.612Z,9.90
2023-04-22T06:40:04.190Z,10.50
2023-04-22T06:41:25.057Z,10.63
2023-04-22T06:42:30.621Z,11.40
2023-04-22T06:43:51.472Z,9.18
2023-04-22T06:44:53.697Z,9.07
2023-04-22T06:46:12.306Z,9.70
2023-04-22T06:47:26.956Z,9.07
2023-04-22T06:48:35.441Z,9.02
2023-04-22T06:49:56.080Z,9.23
2023-04-22T06:51:05.886Z,10.00
2023-04-22T06:52:08.195Z,12.05
2023-04-22T06:53:10.798Z,8.05
2023-04-22T06:54:13.121Z,9.18
2023-04-22T06:55:15.354Z,8.93
2023-04-22T06:56:18.178Z,8.88
2023-04-22T06:57:20.459Z,8.43
2023-04-22T06:58:22.766Z,9.02
2023-04-22T06:59:25.447Z,9.57
2023-04-22T07:00:28.433Z,9.23
2023-04-22T07:01:30.841Z,8.85
2023-04-22T07:02:35.810Z,8.60
2023-04-22T07:03:38.566Z,9.65
2023-04-22T07:04:44.845Z,9.18
2023-04-22T07:05:48.884Z,8.65
2023-04-22T07:06:51.311Z,10.25
2023-04-22T07:07:53.878Z,8.90
2023-04-22T07:08:58.589Z,8.57
2023-04-22T07:10:01.306Z,8.70
2023-04-22T07:11:12.546Z,9.43
2023-04-22T07:12:25.896Z,9.73
2023-04-22T07:13:28.183Z,9.88
2023-04-22T07:14:30.493Z,10.23
2023-04-22T07:15:32.775Z,8.73
2023-04-22T07:16:35.149Z,9.43
2023-04-22T07:17:37.434Z,8.98
2023-04-22T07:18:40.211Z,8.43
2023-04-22T07:19:42.560Z,8.35
2023-04-22T07:20:44.838Z,9.55
2023-04-22T07:21:47.283Z,12.52
2023-04-22T07:22:49.596Z,9.27
2023-04-22T07:23:52.126Z,8.73
2023-04-22T07:24:54.477Z,9.63
2023-04-22T07:25:56.890Z,9.20
2023-04-22T07:26:59.143Z,9.48
2023-04-22T07:28:01.480Z,10.70
2023-04-22T07:29:04.221Z,8.07
2023-04-22T07:30:08.383Z,8.80
2023-04-22T07:31:10.923Z,8.88
2023-04-22T07:32:13.173Z,9.10
2023-04-22T07:33:15.461Z,8.75
2023-04-22T07:34:18.594Z,8.02
2023-04-22T07:35:20.827Z,8.20
2023-04-22T07:36:23.066Z,8.48
2023-04-22T07:37:25.955Z,8.90
2023-04-22T07:38:28.417Z,9.15
2023-04-22T07:39:30.663Z,8.63
2023-04-22T07:40:32.947Z,9.20
2023-04-22T07:41:36.088Z,8.45
2023-04-22T07:42:41.488Z,9.52
2023-04-22T07:43:43.720Z,8.88
2023-04-22T07:44:46.028Z,8.90
2023-04-22T07:45:48.453Z,9.38
2023-04-22T07:46:50.971Z,9.95
2023-04-22T07:47:53.241Z,8.57
2023-04-22T07:48:55.562Z,9.82
2023-04-22T07:49:57.868Z,9.18
2023-04-22T07:51:00.123Z,9.07
2023-04-22T07:52:02.450Z,12.52
2023-04-22T07:53:04.736Z,9.75
2023-04-22T07:54:07.595Z,8.73
2023-04-22T07:55:10.049Z,11.05
2023-04-22T07:56:13.208Z,8.95
2023-04-22T07:57:15.414Z,8.63
2023-04-22T07:58:20.438Z,8.98
2023-04-22T07:59:22.668Z,8.32
2023-04-22T08:00:24.938Z,8.55
2023-04-22T08:01:27.372Z,8.57
2023-04-22T08:02:29.756Z,9.00
2023-04-22T08:03:32.240Z,9.05
2023-04-22T08:04:35.210Z,8.02
2023-04-22T08:05:37.529Z,9.45
2023-04-22T08:06:39.906Z,9.27
2023-04-22T08:07:42.378Z,8.40
2023-04-22T08:08:44.631Z,8.50
2023-04-22T08:09:46.987Z,8.77
2023-04-22T08:10:49.483Z,9.63
2023-04-22T08:11:52.781Z,8.05
2023-04-22T08:12:55.144Z,7.85
2023-04-22T08:13:57.460Z,10.20
2023-04-22T08:14:59.753Z,10.90
2023-04-22T08:16:03.598Z,8.45
2023-04-22T08:17:06.285Z,9.35
2023-04-22T08:18:08.565Z,8.32
2023-04-22T08:19:11.131Z,7.88
2023-04-22T08:20:15.618Z,8.18
2023-04-22T08:21:17.935Z,8.90
2023-04-22T08:22:20.238Z,9.43
2023-04-22T08:23:22.717Z,8.45
2023-04-22T08:24:25.044Z,8.10
2023-04-22T08:25:28.067Z,8.18
2023-04-22T08:26:30.665Z,8.18
2023-04-22T08:27:32.922Z,8.60
2023-04-22T08:28:35.632Z,8.00
2023-04-22T08:29:38.370Z,7.82
2023-04-22T08:30:41.191Z,7.47
2023-04-22T08:31:43.500Z,10.32
2023-04-22T08:32:46.268Z,8.02
2023-04-22T08:33:48.824Z,8.95
2023-04-22T08:34:52.056Z,9.20
2023-04-22T08:35:56.391Z,10.93
2023-04-22T08:36:58.848Z,8.20
2023-04-22T08:38:01.194Z,8.10
2023-04-22T08:39:03.510Z,7.72
2023-04-22T08:40:06.879Z,7.65
2023-04-22T08:41:10.232Z,8.43
2023-04-22T08:42:13.492Z,8.85
2023-04-22T08:43:16.111Z,7.22
2023-04-22T08:44:19.472Z,9.07
2023-04-22T08:45:22.235Z,8.30
2023-04-22T08:46:25.933Z,8.00
2023-04-22T08:47:29.039Z,7.95
2023-04-22T08:48:32.733Z,8.35
2023-04-22T08:49:38.191Z,10.73
2023-04-22T08:50:41.509Z,7.47
2023-04-22T08:51:45.032Z,8.50
2023-04-22T08:52:47.309Z,8.05
2023-04-22T08:53:50.074Z,8.07
2023-04-22T08:54:52.882Z,8.02
2023-04-22T08:55:56.862Z,8.65
2023-04-22T08:57:01.485Z,7.53
2023-04-22T08:58:06.409Z,7.95
2023-04-22T08:59:13.529Z,8.40
2023-04-22T09:00:16.653Z,9.18
2023-04-22T09:01:19.239Z,7.30
2023-04-22T09:02:23.604Z,7.72
2023-04-22T09:03:26.765Z,9.60
2023-04-22T09:04:29.345Z,7.50
2023-04-22T09:05:35.387Z,9.00
2023-04-22T09:06:39.137Z,8.55
2023-04-22T09:07:41.674Z,8.93
2023-04-22T09:08:43.965Z,8.43
2023-04-22T09:09:46.263Z,8.00
2023-04-22T09:10:48.917Z,7.63
2023-04-22T09:11:51.121Z,8.40
2023-04-22T09:12:54.603Z,7.60
2023-04-22T09:13:56.900Z,7.90
2023-04-22T09:14:59.236Z,8.65
2023-04-22T09:16:01.578Z,7.35
2023-04-22T09:17:04.050Z,7.50
2023-04-22T09:18:09.594Z,7.38
2023-04-22T09:19:13.436Z,8.65
2023-04-22T09:20:17.898Z,7.75
2023-04-22T09:21:20.310Z,8.80
2023-04-22T09:22:22.623Z,7.32
2023-04-22T09:23:25.344Z,8.57
2023-04-22T09:24:27.747Z,7.00
2023-04-22T09:25:30.021Z,7.30
2023-04-22T09:26:32.473Z,7.68
2023-04-22T09:27:35.679Z,7.65
2023-04-22T09:28:38.022Z,6.63
2023-04-22T09:29:48.993Z,7.05
2023-04-22T09:30:51.304Z,7.47
2023-04-22T09:31:53.805Z,7.03
2023-04-22T09:32:58.378Z,8.02
2023-04-22T09:34:01.453Z,7.15
2023-04-22T09:35:04.252Z,7.03
2023-04-22T09:36:09.859Z,6.78
2023-04-22T09:37:12.843Z,8.73
2023-04-22T09:38:15.075Z,6.93
2023-04-22T09:39:17.435Z,7.40
2023-04-22T09:40:20.213Z,9.13
2023-04-22T09:41:36.909Z,6.72
2023-04-22T09:42:51.654Z,7.10
2023-04-22T09:43:56.655Z,6.63
2023-04-22T09:45:01.196Z,7.55
2023-04-22T09:46:04.321Z,6.65
2023-04-22T09:47:06.845Z,9.02
2023-04-22T09:48:14.644Z,6.68
2023-04-22T09:49:17.468Z,6.90
2023-04-22T09:50:25.275Z,6.63
2023-04-22T09:51:28.736Z,6.65
2023-04-22T09:52:33.099Z,6.78
2023-04-22T09:53:37.627Z,7.60
2023-04-22T09:54:40.037Z,9.02
2023-04-22T09:55:45.037Z,7.20
2023-04-22T09:56:49.626Z,7.15
2023-04-22T09:57:54.131Z,11.10
2023-04-22T09:58:56.331Z,7.53
2023-04-22T09:59:59.128Z,6.68
2023-04-22T10:01:03.447Z,8.68
2023-04-22T10:02:07.289Z,8.88
2023-04-22T10:03:10.688Z,6.68
2023-04-22T10:04:15.205Z,6.70
2023-04-22T10:05:18.622Z,9.10
2023-04-22T10:06:21.961Z,5.65
2023-04-22T10:07:24.681Z,5.63
2023-04-22T10:08:27.082Z,7.45
2023-04-22T10:09:29.455Z,6.00
2023-04-22T10:10:32.506Z,6.40
2023-04-22T10:11:34.806Z,8.00
2023-04-22T10:12:37.578Z,5.15
2023-04-22T10:13:39.888Z,7.78
2023-04-22T10:14:42.697Z,7.25
2023-04-22T10:15:50.575Z,6.68
2023-04-22T10:16:58.266Z,5.65
2023-04-22T10:18:01.939Z,7.20
2023-04-22T10:19:07.494Z,6.15
2023-04-22T10:20:13.955Z,7.88
2023-04-22T10:21:18.838Z,5.78
2023-04-22T10:22:21.357Z,5.47
2023-04-22T10:23:24.972Z,5.70
2023-04-22T10:24:30.108Z,6.57
2023-04-22T10:25:32.618Z,5.55
2023-04-22T10:26:51.719Z,7.38
2023-04-22T10:28:05.674Z,6.07
2023-04-22T10:29:11.071Z,6.53
2023-04-22T10:30:27.293Z,5.47
2023-04-22T10:31:29.533Z,7.53
2023-04-22T10:32:33.375Z,6.45
2023-04-22T10:33:36.698Z,5.32
2023-04-22T10:34:41.710Z,8.55
2023-04-22T10:36:15.770Z,5.55
2023-04-22T10:37:21.891Z,5.90
2023-04-22T10:38:24.135Z,7.13
2023-04-22T10:39:28.488Z,7.03
2023-04-22T10:40:31.234Z,6.40
2023-04-22T10:41:35.261Z,6.53
2023-04-22T10:42:40.594Z,5.47
2023-04-22T10:43:47.931Z,5.68
2023-04-22T10:44:53.176Z,6.57
2023-04-22T10:45:55.513Z,6.97
2023-04-22T10:46:59.693Z,5.28
2023-04-22T10:48:05.151Z,5.75
2023-04-22T10:49:12.121Z,7.90
2023-04-22T10:50:22.383Z,4.88
2023-04-22T10:51:41.017Z,7.40
2023-04-22T10:52:46.426Z,8.10
2023-04-22T10:53:48.691Z,6.03
2023-04-22T10:54:50.952Z,5.22
2023-04-22T10:55:54.039Z,6.22
2023-04-22T10:57:16.417Z,5.82
2023-04-22T10:58:20.505Z,4.97
2023-04-22T10:59:22.877Z,6.60
2023-04-22T11:00:41.755Z,6.22
2023-04-22T11:01:52.741Z,7.03
2023-04-22T11:03:09.057Z,6.93
2023-04-22T11:04:23.557Z,4.40
2023-04-22T11:05:27.779Z,11.18
2023-04-22T11:06:30.535Z,7.45
2023-04-22T11:07:35.081Z,6.32
2023-04-22T11:08:37.304Z,7.00
2023-04-22T11:09:41.024Z,8.40
2023-04-22T11:10:46.455Z,6.03
2023-04-22T11:11:50.381Z,5.78
2023-04-22T11:12:52.951Z,5.85
2023-04-22T11:13:55.747Z,6.05
2023-04-22T11:14:58.002Z,5.43
2023-04-22T11:16:00.799Z,6.72
2023-04-22T11:17:03.051Z,5.90
2023-04-22T11:18:11.097Z,4.85
2023-04-22T11:19:13.436Z,4.90
2023-04-22T11:20:18.906Z,5.22
2023-04-22T11:21:21.614Z,6.32
2023-04-22T11:22:24.800Z,6.40
2023-04-22T11:23:28.678Z,6.75
2023-04-22T11:24:31.106Z,5.15
2023-04-22T11:25:33.358Z,5.30
2023-04-22T11:26:37.843Z,5.00
2023-04-22T11:27:41.545Z,6.10
2023-04-22T11:28:47.810Z,5.47
2023-04-22T11:30:04.713Z,6.18
2023-04-22T11:31:10.511Z,5.38
2023-04-22T11:32:12.857Z,7.90
2023-04-22T11:33:16.708Z,6.72
2023-04-22T11:34:19.010Z,5.05
2023-04-22T11:35:23.526Z,4.80
2023-04-22T11:36:25.892Z,5.30
2023-04-22T11:37:28.883Z,6.47
2023-04-22T11:38:31.518Z,5.80
2023-04-22T11:39:43.569Z,7.97
2023-04-22T11:40:55.292Z,5.93
2023-04-22T11:41:57.528Z,5.32
2023-04-22T11:43:01.652Z,5.95
2023-04-22T11:44:03.926Z,5.63
2023-04-22T11:45:07.478Z,6.43
2023-04-22T11:46:09.717Z,7.53
2023-04-22T11:47:12.848Z,5.75
2023-04-22T11:48:15.764Z,6.07
2023-04-22T11:49:18.443Z,5.20
2023-04-22T11:50:27.153Z,5.00
2023-04-22T11:51:29.418Z,5.50
2023-04-22T11:53:11.518Z,6.30
2023-04-22T11:54:13.737Z,7.15
2023-04-22T11:55:20.057Z,5.85
2023-04-22T11:56:22.678Z,5.97
2023-04-22T11:57:26.791Z,6.70
2023-04-22T11:58:29.026Z,6.82
2023-04-22T11:59:31.304Z,6.03
2023-04-22T12:00:37.466Z,5.70
2023-04-22T12:01:42.305Z,6.95
2023-04-22T12:02:55.885Z,5.68
2023-04-22T12:04:01.529Z,6.20
2023-04-22T12:05:04.229Z,6.63
2023-04-22T12:06:06.746Z,6.55
2023-04-22T12:07:09.168Z,9.65
2023-04-22T12:08:17.384Z,5.78
2023-04-22T12:09:19.644Z,8.82
2023-04-22T12:10:23.536Z,9.95
2023-04-22T12:11:25.859Z,6.05
2023-04-22T12:12:28.514Z,7.50
2023-04-22T12:13:33.384Z,6.63
2023-04-22T12:14:35.962Z,8.82
2023-04-22T12:15:39.867Z,6.35
2023-04-22T12:16:43.230Z,5.18
2023-04-22T12:17:46.565Z,7.13
2023-04-22T12:18:51.264Z,6.30
2023-04-22T12:19:57.352Z,7.13
2023-04-22T12:21:22.026Z,5.82
2023-04-22T12:22:25.925Z,5.70
2023-04-22T12:23:28.661Z,5.90
2023-04-22T12:24:31.101Z,5.32
2023-04-22T12:25:34.127Z,6.60
2023-04-22T12:26:38.108Z,8.10
2023-04-22T12:27:40.453Z,6.55
2023-04-22T12:28:44.713Z,6.40
2023-04-22T12:29:55.395Z,7.10
2023-04-22T12:30:57.670Z,6.30
2023-04-22T12:32:01.013Z,7.50
2023-04-22T12:33:03.363Z,6.72
2023-04-22T12:34:06.354Z,5.75
2023-04-22T12:35:08.805Z,5.93
2023-04-22T12:36:11.290Z,7.78
2023-04-22T12:37:13.816Z,6.93
2023-04-22T12:38:16.243Z,8.15
2023-04-22T12:39:19.123Z,6.78
2023-04-22T12:40:21.350Z,6.53
2023-04-22T12:41:23.917Z,6.15
2023-04-22T12:42:26.163Z,6.95
2023-04-22T12:43:28.433Z,8.00
2023-04-22T12:44:30.674Z,6.90
2023-04-22T12:45:33.028Z,6.30
2023-04-22T12:46:36.233Z,7.03
2023-04-22T12:47:38.716Z,6.45
2023-04-22T12:48:42.997Z,6.60
2023-04-22T12:49:47.254Z,8.90
2023-04-22T12:50:49.803Z,7.00
2023-04-22T12:51:52.419Z,7.00
2023-04-22T12:52:55.479Z,6.40
2023-04-22T12:53:58.514Z,6.72
2023-04-22T12:55:01.095Z,8.05
2023-04-22T12:56:03.514Z,6.20
2023-04-22T12:57:05.774Z,7.25
2023-04-22T12:58:08.111Z,8.02
2023-04-22T12:59:10.402Z,7.95
2023-04-22T13:00:16.463Z,7.10
2023-04-22T13:01:18.719Z,6.10
2023-04-22T13:02:21.406Z,5.80
2023-04-22T13:03:23.870Z,9.00
2023-04-22T13:04:26.530Z,5.72
2023-04-22T13:05:28.912Z,6.55
2023-04-22T13:06:32.613Z,10.02
2023-04-22T13:07:34.863Z,7.63
2023-04-22T13:08:37.166Z,7.70
2023-04-22T13:09:39.623Z,7.43
2023-04-22T13:10:42.035Z,6.55
2023-04-22T13:11:44.599Z,8.80
2023-04-22T13:12:46.819Z,6.50
2023-04-22T13:13:49.038Z,6.47
2023-04-22T13:14:51.343Z,6.00
2023-04-22T13:15:54.565Z,7.60
2023-04-22T13:16:57.730Z,7.25
2023-04-22T13:18:00.069Z,5.90
2023-04-22T13:19:02.327Z,7.78
2023-04-22T13:20:06.421Z,5.88
2023-04-22T13:21:08.897Z,5.18
2023-04-22T13:22:11.233Z,6.72
2023-04-22T13:23:14.539Z,6.32
2023-04-22T13:24:16.855Z,5.47
2023-04-22T13:25:19.288Z,5.20
2023-04-22T13:26:21.634Z,9.20
2023-04-22T13:27:24.089Z,5.03
2023-04-22T13:28:26.407Z,7.30
2023-04-22T13:29:29.125Z,6.15
2023-04-22T13:30:31.431Z,5.00
2023-04-22T13:31:33.756Z,4.78
2023-04-22T13:32:36.190Z,5.55
2023-04-22T13:33:38.461Z,6.75
2023-04-22T13:34:40.785Z,5.65
2023-04-22T13:35:43.239Z,5.38
2023-04-22T13:36:46.006Z,5.30
2023-04-22T13:37:48.274Z,6.25
2023-04-22T13:38:51.395Z,5.15
2023-04-22T13:39:53.634Z,5.13
2023-04-22T13:40:55.866Z,5.63
2023-04-22T13:41:58.797Z,6.57
2023-04-22T13:43:01.416Z,7.20
2023-04-22T13:44:04.722Z,5.75
2023-04-22T13:45:07.697Z,5.43
2023-04-22T13:46:10.089Z,5.75
2023-04-22T13:47:12.752Z,5.35
2023-04-22T13:48:16.199Z,7.28
2023-04-22T13:49:18.391Z,5.97
2023-04-22T13:50:21.097Z,5.15
2023-04-22T13:51:23.392Z,5.80
2023-04-22T13:52:27.228Z,5.40
2023-04-22T13:53:29.636Z,6.38
2023-04-22T13:54:31.908Z,6.40
2023-04-22T13:55:34.157Z,5.15
2023-04-22T13:56:36.571Z,5.47
2023-04-22T13:57:38.819Z,6.30
2023-04-22T13:58:43.163Z,6.68
2023-04-22T13:59:45.412Z,5.55
2023-04-22T14:00:47.761Z,5.63
2023-04-22T14:01:50.143Z,6.63
2023-04-22T14:02:52.507Z,6.78
2023-04-22T14:03:55.139Z,4.97